sensor_id;sensor_type;location;lat;lon;timestamp;P1;durP1;ratioP1;P2;durP2;ratioP2
840;SDS011;406;48.566;13.450;2022-12-07T00:01:44;6.67;;;5.97;;
840;SDS011;406;48.566;13.450;2022-12-07T00:04:11;6.60;;;5.73;;
840;SDS011;406;48.566;13.450;2022-12-07T00:06:39;10.23;;;6.50;;
840;SDS011;406;48.566;13.450;2022-12-07T00:09:12;7.47;;;5.95;;
840;SDS011;406;48.566;13.450;2022-12-07T00:11:39;6.20;;;5.60;;
840;SDS011;406;48.566;13.450;2022-12-07T00:14:06;6.60;;;6.00;;
840;SDS011;406;48.566;13.450;2022-12-07T00:16:33;7.00;;;5.97;;
840;SDS011;406;48.566;13.450;2022-12-07T00:18:59;7.33;;;6.33;;
840;SDS011;406;48.566;13.450;2022-12-07T00:21:29;7.60;;;5.73;;
840;SDS011;406;48.566;13.450;2022-12-07T00:23:56;7.15;;;6.40;;
840;SDS011;406;48.566;13.450;2022-12-07T00:28:56;7.57;;;6.72;;
840;SDS011;406;48.566;13.450;2022-12-07T00:31:24;7.60;;;4.43;;
840;SDS011;406;48.566;13.450;2022-12-07T00:33:51;8.30;;;6.80;;
840;SDS011;406;48.566;13.450;2022-12-07T00:36:18;7.67;;;6.60;;
840;SDS011;406;48.566;13.450;2022-12-07T00:38:45;6.90;;;5.38;;
840;SDS011;406;48.566;13.450;2022-12-07T00:41:18;7.80;;;5.97;;
840;SDS011;406;48.566;13.450;2022-12-07T00:43:45;6.38;;;5.32;;
840;SDS011;406;48.566;13.450;2022-12-07T00:46:12;7.32;;;6.60;;
840;SDS011;406;48.566;13.450;2022-12-07T00:48:38;8.95;;;7.70;;
840;SDS011;406;48.566;13.450;2022-12-07T00:51:05;7.40;;;6.40;;
840;SDS011;406;48.566;13.450;2022-12-07T00:53:33;8.30;;;6.88;;
840;SDS011;406;48.566;13.450;2022-12-07T00:56:04;8.35;;;6.40;;
840;SDS011;406;48.566;13.450;2022-12-07T00:58:32;7.07;;;6.20;;
840;SDS011;406;48.566;13.450;2022-12-07T01:00:59;6.97;;;6.27;;
840;SDS011;406;48.566;13.450;2022-12-07T01:03:28;8.55;;;6.93;;
840;SDS011;406;48.566;13.450;2022-12-07T01:05:54;7.80;;;6.50;;
840;SDS011;406;48.566;13.450;2022-12-07T01:08:21;6.60;;;5.68;;
840;SDS011;406;48.566;13.450;2022-12-07T01:10:47;7.77;;;7.07;;
840;SDS011;406;48.566;13.450;2022-12-07T01:13:13;6.63;;;5.50;;
840;SDS011;406;48.566;13.450;2022-12-07T01:15:39;8.80;;;6.50;;
840;SDS011;406;48.566;13.450;2022-12-07T01:18:06;8.57;;;6.30;;
840;SDS011;406;48.566;13.450;2022-12-07T01:20:31;6.37;;;4.73;;
840;SDS011;406;48.566;13.450;2022-12-07T01:22:57;7.83;;;7.00;;
840;SDS011;406;48.566;13.450;2022-12-07T01:25:22;8.40;;;7.00;;
840;SDS011;406;48.566;13.450;2022-12-07T01:27:48;6.70;;;5.83;;
840;SDS011;406;48.566;13.450;2022-12-07T01:30:13;7.23;;;5.30;;
840;SDS011;406;48.566;13.450;2022-12-07T01:32:39;7.00;;;6.20;;
840;SDS011;406;48.566;13.450;2022-12-07T01:35:04;8.20;;;6.50;;
840;SDS011;406;48.566;13.450;2022-12-07T01:37:34;9.23;;;5.00;;
840;SDS011;406;48.566;13.450;2022-12-07T01:40:01;6.27;;;5.10;;
840;SDS011;406;48.566;13.450;2022-12-07T01:42:28;6.68;;;5.50;;
840;SDS011;406;48.566;13.450;2022-12-07T01:47:49;7.80;;;5.95;;
840;SDS011;406;48.566;13.450;2022-12-07T01:50:16;7.50;;;5.95;;
840;SDS011;406;48.566;13.450;2022-12-07T01:52:42;5.97;;;5.23;;
840;SDS011;406;48.566;13.450;2022-12-07T01:55:10;7.65;;;5.57;;
840;SDS011;406;48.566;13.450;2022-12-07T01:57:39;7.00;;;5.50;;
840;SDS011;406;48.566;13.450;2022-12-07T02:00:06;7.23;;;5.80;;
840;SDS011;406;48.566;13.450;2022-12-07T02:02:41;8.20;;;6.77;;
840;SDS011;406;48.566;13.450;2022-12-07T02:05:09;7.10;;;5.97;;
840;SDS011;406;48.566;13.450;2022-12-07T02:07:36;6.93;;;5.47;;
840;SDS011;406;48.566;13.450;2022-12-07T02:10:13;6.33;;;5.73;;
840;SDS011;406;48.566;13.450;2022-12-07T02:12:46;7.53;;;5.67;;
840;SDS011;406;48.566;13.450;2022-12-07T02:15:14;7.33;;;6.07;;
840;SDS011;406;48.566;13.450;2022-12-07T02:17:51;7.10;;;6.40;;
840;SDS011;406;48.566;13.450;2022-12-07T02:20:32;9.05;;;6.10;;
840;SDS011;406;48.566;13.450;2022-12-07T02:23:18;7.13;;;5.87;;
840;SDS011;406;48.566;13.450;2022-12-07T02:29:00;8.50;;;5.90;;
840;SDS011;406;48.566;13.450;2022-12-07T02:31:40;7.20;;;6.50;;
840;SDS011;406;48.566;13.450;2022-12-07T02:37:18;7.70;;;6.87;;
840;SDS011;406;48.566;13.450;2022-12-07T02:39:51;8.57;;;6.50;;
840;SDS011;406;48.566;13.450;2022-12-07T02:42:30;7.10;;;6.50;;
840;SDS011;406;48.566;13.450;2022-12-07T02:44:57;8.13;;;6.77;;
840;SDS011;406;48.566;13.450;2022-12-07T02:47:24;7.10;;;6.40;;
840;SDS011;406;48.566;13.450;2022-12-07T02:49:50;7.53;;;6.70;;
840;SDS011;406;48.566;13.450;2022-12-07T02:52:16;8.02;;;7.15;;
840;SDS011;406;48.566;13.450;2022-12-07T02:54:42;7.53;;;6.77;;
840;SDS011;406;48.566;13.450;2022-12-07T03:15:33;7.63;;;6.90;;
840;SDS011;406;48.566;13.450;2022-12-07T03:18:03;8.50;;;6.70;;
840;SDS011;406;48.566;13.450;2022-12-07T03:20:29;6.75;;;6.00;;
840;SDS011;406;48.566;13.450;2022-12-07T03:22:57;8.60;;;7.70;;
840;SDS011;406;48.566;13.450;2022-12-07T03:25:23;7.73;;;6.83;;
840;SDS011;406;48.566;13.450;2022-12-07T03:27:52;8.40;;;7.60;;
840;SDS011;406;48.566;13.450;2022-12-07T03:30:23;7.47;;;6.72;;
840;SDS011;406;48.566;13.450;2022-12-07T03:32:53;8.48;;;7.13;;
840;SDS011;406;48.566;13.450;2022-12-07T03:35:24;8.70;;;6.13;;
840;SDS011;406;48.566;13.450;2022-12-07T03:37:57;8.67;;;7.77;;
840;SDS011;406;48.566;13.450;2022-12-07T03:40:37;7.53;;;6.38;;
840;SDS011;406;48.566;13.450;2022-12-07T03:43:07;8.70;;;7.50;;
840;SDS011;406;48.566;13.450;2022-12-07T03:45:37;8.43;;;7.30;;
840;SDS011;406;48.566;13.450;2022-12-07T03:48:12;8.97;;;7.80;;
840;SDS011;406;48.566;13.450;2022-12-07T03:50:53;8.02;;;6.65;;
840;SDS011;406;48.566;13.450;2022-12-07T03:53:32;8.63;;;6.78;;
840;SDS011;406;48.566;13.450;2022-12-07T03:56:00;7.68;;;6.90;;
840;SDS011;406;48.566;13.450;2022-12-07T03:58:27;8.10;;;7.30;;
840;SDS011;406;48.566;13.450;2022-12-07T04:00:53;7.50;;;5.90;;
840;SDS011;406;48.566;13.450;2022-12-07T04:03:18;9.80;;;7.50;;
840;SDS011;406;48.566;13.450;2022-12-07T04:05:44;12.17;;;7.93;;
840;SDS011;406;48.566;13.450;2022-12-07T04:08:09;8.23;;;7.43;;
840;SDS011;406;48.566;13.450;2022-12-07T04:10:35;7.53;;;6.73;;
840;SDS011;406;48.566;13.450;2022-12-07T04:13:01;10.00;;;8.57;;
840;SDS011;406;48.566;13.450;2022-12-07T04:15:26;7.83;;;6.93;;
840;SDS011;406;48.566;13.450;2022-12-07T04:17:52;8.80;;;7.67;;
840;SDS011;406;48.566;13.450;2022-12-07T04:20:17;10.03;;;6.80;;
840;SDS011;406;48.566;13.450;2022-12-07T04:22:43;7.80;;;7.00;;
840;SDS011;406;48.566;13.450;2022-12-07T04:25:08;8.13;;;7.00;;
840;SDS011;406;48.566;13.450;2022-12-07T04:27:34;8.80;;;7.13;;
840;SDS011;406;48.566;13.450;2022-12-07T04:29:59;8.43;;;7.20;;
840;SDS011;406;48.566;13.450;2022-12-07T04:32:25;10.93;;;8.70;;
840;SDS011;406;48.566;13.450;2022-12-07T04:34:50;7.90;;;7.10;;
840;SDS011;406;48.566;13.450;2022-12-07T04:37:16;8.80;;;7.90;;
840;SDS011;406;48.566;13.450;2022-12-07T04:39:42;8.53;;;7.57;;
840;SDS011;406;48.566;13.450;2022-12-07T04:42:09;9.53;;;7.90;;
840;SDS011;406;48.566;13.450;2022-12-07T04:44:35;9.60;;;7.80;;
840;SDS011;406;48.566;13.450;2022-12-07T04:47:01;10.37;;;7.67;;
840;SDS011;406;48.566;13.450;2022-12-07T04:49:26;8.93;;;7.27;;
840;SDS011;406;48.566;13.450;2022-12-07T04:51:52;8.57;;;7.63;;
840;SDS011;406;48.566;13.450;2022-12-07T04:54:18;9.77;;;7.27;;
840;SDS011;406;48.566;13.450;2022-12-07T04:56:43;9.17;;;7.60;;
840;SDS011;406;48.566;13.450;2022-12-07T04:59:09;10.40;;;8.30;;
840;SDS011;406;48.566;13.450;2022-12-07T05:01:36;10.13;;;8.90;;
840;SDS011;406;48.566;13.450;2022-12-07T05:04:01;9.47;;;7.47;;
840;SDS011;406;48.566;13.450;2022-12-07T05:06:27;9.25;;;7.93;;
840;SDS011;406;48.566;13.450;2022-12-07T05:08:53;8.67;;;7.60;;
840;SDS011;406;48.566;13.450;2022-12-07T05:11:18;10.50;;;9.10;;
840;SDS011;406;48.566;13.450;2022-12-07T05:14:03;8.35;;;7.28;;
840;SDS011;406;48.566;13.450;2022-12-07T05:16:31;8.60;;;6.85;;
840;SDS011;406;48.566;13.450;2022-12-07T05:18:57;8.27;;;7.10;;
840;SDS011;406;48.566;13.450;2022-12-07T05:21:23;10.40;;;7.97;;
840;SDS011;406;48.566;13.450;2022-12-07T05:23:48;9.70;;;7.97;;
840;SDS011;406;48.566;13.450;2022-12-07T05:26:14;10.63;;;7.80;;
840;SDS011;406;48.566;13.450;2022-12-07T05:28:39;10.30;;;7.97;;
840;SDS011;406;48.566;13.450;2022-12-07T05:31:05;9.87;;;8.07;;
840;SDS011;406;48.566;13.450;2022-12-07T05:33:30;10.47;;;9.33;;
840;SDS011;406;48.566;13.450;2022-12-07T05:35:56;9.73;;;8.53;;
840;SDS011;406;48.566;13.450;2022-12-07T05:38:21;9.33;;;7.80;;
840;SDS011;406;48.566;13.450;2022-12-07T05:40:47;10.70;;;9.20;;
840;SDS011;406;48.566;13.450;2022-12-07T05:43:12;8.97;;;8.03;;
840;SDS011;406;48.566;13.450;2022-12-07T05:45:37;8.97;;;8.00;;
840;SDS011;406;48.566;13.450;2022-12-07T05:48:03;12.47;;;9.50;;
840;SDS011;406;48.566;13.450;2022-12-07T05:50:28;10.60;;;9.07;;
840;SDS011;406;48.566;13.450;2022-12-07T05:53:03;11.65;;;9.55;;
840;SDS011;406;48.566;13.450;2022-12-07T05:55:28;11.23;;;7.97;;
840;SDS011;406;48.566;13.450;2022-12-07T05:57:54;9.83;;;8.73;;
840;SDS011;406;48.566;13.450;2022-12-07T06:00:38;12.90;;;10.35;;
840;SDS011;406;48.566;13.450;2022-12-07T06:03:03;10.70;;;8.97;;
840;SDS011;406;48.566;13.450;2022-12-07T06:05:29;11.20;;;9.37;;
840;SDS011;406;48.566;13.450;2022-12-07T06:07:54;9.53;;;6.50;;
840;SDS011;406;48.566;13.450;2022-12-07T06:10:20;9.13;;;8.23;;
840;SDS011;406;48.566;13.450;2022-12-07T06:12:45;10.67;;;9.57;;
840;SDS011;406;48.566;13.450;2022-12-07T06:15:11;11.93;;;8.87;;
840;SDS011;406;48.566;13.450;2022-12-07T06:17:38;12.40;;;9.65;;
840;SDS011;406;48.566;13.450;2022-12-07T06:20:04;10.80;;;8.73;;
840;SDS011;406;48.566;13.450;2022-12-07T06:22:30;12.80;;;10.23;;
840;SDS011;406;48.566;13.450;2022-12-07T06:24:55;12.77;;;10.20;;
840;SDS011;406;48.566;13.450;2022-12-07T06:27:21;9.60;;;8.27;;
840;SDS011;406;48.566;13.450;2022-12-07T06:29:46;12.50;;;9.67;;
840;SDS011;406;48.566;13.450;2022-12-07T06:32:12;12.20;;;9.20;;
840;SDS011;406;48.566;13.450;2022-12-07T06:34:37;11.03;;;8.50;;
840;SDS011;406;48.566;13.450;2022-12-07T06:37:03;12.60;;;9.77;;
840;SDS011;406;48.566;13.450;2022-12-07T06:39:29;12.03;;;9.40;;
840;SDS011;406;48.566;13.450;2022-12-07T06:41:55;9.80;;;7.97;;
840;SDS011;406;48.566;13.450;2022-12-07T06:44:21;11.85;;;9.27;;
840;SDS011;406;48.566;13.450;2022-12-07T06:46:48;11.60;;;9.40;;
840;SDS011;406;48.566;13.450;2022-12-07T06:49:13;12.00;;;9.13;;
840;SDS011;406;48.566;13.450;2022-12-07T06:51:39;13.37;;;10.10;;
840;SDS011;406;48.566;13.450;2022-12-07T06:54:08;11.18;;;9.55;;
840;SDS011;406;48.566;13.450;2022-12-07T06:56:37;11.40;;;8.87;;
840;SDS011;406;48.566;13.450;2022-12-07T06:59:02;13.80;;;10.30;;
840;SDS011;406;48.566;13.450;2022-12-07T07:01:28;12.75;;;10.88;;
840;SDS011;406;48.566;13.450;2022-12-07T07:03:54;11.23;;;10.03;;
840;SDS011;406;48.566;13.450;2022-12-07T07:06:19;11.93;;;9.60;;
840;SDS011;406;48.566;13.450;2022-12-07T07:08:45;15.00;;;10.40;;
840;SDS011;406;48.566;13.450;2022-12-07T07:11:10;10.43;;;9.37;;
840;SDS011;406;48.566;13.450;2022-12-07T07:13:36;14.37;;;11.00;;
840;SDS011;406;48.566;13.450;2022-12-07T07:16:02;13.98;;;10.27;;
840;SDS011;406;48.566;13.450;2022-12-07T07:18:28;13.00;;;10.87;;
840;SDS011;406;48.566;13.450;2022-12-07T07:20:54;13.02;;;10.80;;
840;SDS011;406;48.566;13.450;2022-12-07T07:23:20;12.27;;;9.30;;
840;SDS011;406;48.566;13.450;2022-12-07T07:25:46;15.98;;;11.80;;
840;SDS011;406;48.566;13.450;2022-12-07T07:28:11;15.40;;;11.27;;
840;SDS011;406;48.566;13.450;2022-12-07T07:30:37;15.63;;;11.00;;
840;SDS011;406;48.566;13.450;2022-12-07T07:33:03;13.83;;;9.60;;
840;SDS011;406;48.566;13.450;2022-12-07T07:35:29;12.88;;;10.40;;
840;SDS011;406;48.566;13.450;2022-12-07T07:37:56;14.95;;;11.20;;
840;SDS011;406;48.566;13.450;2022-12-07T07:40:22;13.83;;;9.90;;
840;SDS011;406;48.566;13.450;2022-12-07T07:42:48;15.93;;;11.50;;
840;SDS011;406;48.566;13.450;2022-12-07T07:45:18;14.68;;;9.88;;
840;SDS011;406;48.566;13.450;2022-12-07T07:47:44;12.75;;;9.98;;
840;SDS011;406;48.566;13.450;2022-12-07T07:50:10;14.47;;;10.33;;
840;SDS011;406;48.566;13.450;2022-12-07T07:52:35;15.23;;;10.37;;
840;SDS011;406;48.566;13.450;2022-12-07T07:55:01;15.13;;;11.67;;
840;SDS011;406;48.566;13.450;2022-12-07T07:57:26;14.33;;;9.87;;
840;SDS011;406;48.566;13.450;2022-12-07T07:59:52;16.90;;;12.90;;
840;SDS011;406;48.566;13.450;2022-12-07T08:02:18;25.27;;;15.03;;
840;SDS011;406;48.566;13.450;2022-12-07T08:04:47;17.67;;;13.40;;
840;SDS011;406;48.566;13.450;2022-12-07T08:07:13;15.57;;;11.70;;
840;SDS011;406;48.566;13.450;2022-12-07T08:09:39;15.07;;;11.52;;
840;SDS011;406;48.566;13.450;2022-12-07T08:12:05;19.30;;;13.53;;
840;SDS011;406;48.566;13.450;2022-12-07T08:14:31;14.55;;;11.55;;
840;SDS011;406;48.566;13.450;2022-12-07T08:16:57;15.93;;;12.00;;
840;SDS011;406;48.566;13.450;2022-12-07T08:19:22;15.70;;;11.00;;
840;SDS011;406;48.566;13.450;2022-12-07T08:21:48;14.17;;;10.50;;
840;SDS011;406;48.566;13.450;2022-12-07T08:24:14;14.37;;;10.53;;
840;SDS011;406;48.566;13.450;2022-12-07T08:26:40;15.70;;;11.10;;
840;SDS011;406;48.566;13.450;2022-12-07T08:29:05;16.60;;;11.70;;
840;SDS011;406;48.566;13.450;2022-12-07T08:31:31;15.47;;;12.03;;
840;SDS011;406;48.566;13.450;2022-12-07T08:33:56;15.33;;;12.10;;
840;SDS011;406;48.566;13.450;2022-12-07T08:36:22;18.10;;;13.23;;
840;SDS011;406;48.566;13.450;2022-12-07T08:38:48;14.57;;;12.27;;
840;SDS011;406;48.566;13.450;2022-12-07T08:41:14;17.50;;;13.10;;
840;SDS011;406;48.566;13.450;2022-12-07T08:43:39;14.40;;;10.20;;
840;SDS011;406;48.566;13.450;2022-12-07T08:46:13;13.87;;;10.50;;
840;SDS011;406;48.566;13.450;2022-12-07T08:51:16;12.23;;;9.55;;
840;SDS011;406;48.566;13.450;2022-12-07T08:53:42;14.87;;;11.20;;
840;SDS011;406;48.566;13.450;2022-12-07T08:56:08;12.95;;;10.40;;
840;SDS011;406;48.566;13.450;2022-12-07T08:58:34;11.03;;;8.50;;
840;SDS011;406;48.566;13.450;2022-12-07T09:01:00;13.73;;;9.07;;
840;SDS011;406;48.566;13.450;2022-12-07T09:03:26;13.43;;;9.80;;
840;SDS011;406;48.566;13.450;2022-12-07T09:05:52;14.37;;;9.97;;
840;SDS011;406;48.566;13.450;2022-12-07T09:08:18;11.93;;;9.75;;
840;SDS011;406;48.566;13.450;2022-12-07T09:10:44;14.80;;;9.70;;
840;SDS011;406;48.566;13.450;2022-12-07T09:13:09;12.43;;;8.43;;
840;SDS011;406;48.566;13.450;2022-12-07T09:15:35;10.33;;;8.47;;
840;SDS011;406;48.566;13.450;2022-12-07T09:18:00;12.17;;;8.80;;
840;SDS011;406;48.566;13.450;2022-12-07T09:20:26;11.50;;;9.70;;
840;SDS011;406;48.566;13.450;2022-12-07T09:22:51;10.93;;;9.30;;
840;SDS011;406;48.566;13.450;2022-12-07T09:25:17;12.53;;;8.30;;
840;SDS011;406;48.566;13.450;2022-12-07T09:27:43;11.10;;;7.97;;
840;SDS011;406;48.566;13.450;2022-12-07T09:30:08;13.47;;;10.13;;
840;SDS011;406;48.566;13.450;2022-12-07T09:32:34;10.80;;;7.77;;
840;SDS011;406;48.566;13.450;2022-12-07T09:35:01;11.37;;;9.07;;
840;SDS011;406;48.566;13.450;2022-12-07T09:37:26;11.93;;;8.98;;
840;SDS011;406;48.566;13.450;2022-12-07T09:39:52;14.43;;;11.43;;
840;SDS011;406;48.566;13.450;2022-12-07T09:44:52;11.40;;;9.70;;
840;SDS011;406;48.566;13.450;2022-12-07T09:47:18;12.57;;;9.50;;
840;SDS011;406;48.566;13.450;2022-12-07T09:49:43;11.37;;;9.47;;
840;SDS011;406;48.566;13.450;2022-12-07T09:54:39;13.13;;;10.07;;
840;SDS011;406;48.566;13.450;2022-12-07T09:57:07;14.07;;;10.00;;
840;SDS011;406;48.566;13.450;2022-12-07T09:59:34;12.93;;;9.65;;
840;SDS011;406;48.566;13.450;2022-12-07T10:02:04;10.97;;;8.90;;
840;SDS011;406;48.566;13.450;2022-12-07T10:05:09;11.50;;;8.70;;
840;SDS011;406;48.566;13.450;2022-12-07T10:07:38;13.20;;;9.87;;
840;SDS011;406;48.566;13.450;2022-12-07T10:10:06;11.63;;;9.60;;
840;SDS011;406;48.566;13.450;2022-12-07T10:12:53;11.17;;;8.90;;
840;SDS011;406;48.566;13.450;2022-12-07T10:23:36;12.17;;;8.07;;
840;SDS011;406;48.566;13.450;2022-12-07T10:28:53;9.57;;;8.43;;
840;SDS011;406;48.566;13.450;2022-12-07T10:31:20;10.57;;;7.57;;
840;SDS011;406;48.566;13.450;2022-12-07T10:36:27;12.03;;;9.83;;
840;SDS011;406;48.566;13.450;2022-12-07T10:39:02;11.47;;;9.33;;
840;SDS011;406;48.566;13.450;2022-12-07T10:41:34;11.80;;;8.70;;
840;SDS011;406;48.566;13.450;2022-12-07T10:44:00;13.40;;;8.97;;
840;SDS011;406;48.566;13.450;2022-12-07T10:46:34;12.77;;;9.50;;
840;SDS011;406;48.566;13.450;2022-12-07T10:52:06;12.27;;;9.50;;
840;SDS011;406;48.566;13.450;2022-12-07T10:59:58;11.00;;;7.90;;
840;SDS011;406;48.566;13.450;2022-12-07T11:05:17;12.40;;;8.90;;
840;SDS011;406;48.566;13.450;2022-12-07T11:08:11;10.73;;;9.13;;
840;SDS011;406;48.566;13.450;2022-12-07T11:21:44;12.20;;;8.10;;
840;SDS011;406;48.566;13.450;2022-12-07T11:27:13;10.93;;;7.40;;
840;SDS011;406;48.566;13.450;2022-12-07T11:38:12;11.80;;;8.10;;
840;SDS011;406;48.566;13.450;2022-12-07T11:40:40;11.50;;;8.37;;
840;SDS011;406;48.566;13.450;2022-12-07T11:46:00;9.17;;;7.20;;
840;SDS011;406;48.566;13.450;2022-12-07T11:48:38;8.87;;;6.50;;
840;SDS011;406;48.566;13.450;2022-12-07T11:51:06;10.27;;;7.20;;
840;SDS011;406;48.566;13.450;2022-12-07T11:53:36;9.80;;;6.47;;
840;SDS011;406;48.566;13.450;2022-12-07T11:58:44;8.57;;;7.23;;
840;SDS011;406;48.566;13.450;2022-12-07T12:03:43;10.07;;;8.43;;
840;SDS011;406;48.566;13.450;2022-12-07T12:06:11;9.20;;;7.90;;
840;SDS011;406;48.566;13.450;2022-12-07T12:08:42;13.20;;;8.67;;
840;SDS011;406;48.566;13.450;2022-12-07T12:11:27;10.70;;;7.67;;
840;SDS011;406;48.566;13.450;2022-12-07T12:14:07;10.00;;;7.33;;
840;SDS011;406;48.566;13.450;2022-12-07T12:22:00;9.13;;;6.10;;
840;SDS011;406;48.566;13.450;2022-12-07T12:24:31;9.20;;;6.90;;
840;SDS011;406;48.566;13.450;2022-12-07T12:27:03;9.90;;;7.87;;
840;SDS011;406;48.566;13.450;2022-12-07T12:29:32;10.40;;;7.77;;
840;SDS011;406;48.566;13.450;2022-12-07T12:34:40;12.40;;;7.90;;
840;SDS011;406;48.566;13.450;2022-12-07T12:42:47;8.70;;;6.77;;
840;SDS011;406;48.566;13.450;2022-12-07T12:45:24;9.23;;;6.83;;
840;SDS011;406;48.566;13.450;2022-12-07T12:50:44;9.83;;;7.60;;
840;SDS011;406;48.566;13.450;2022-12-07T12:53:14;8.70;;;7.10;;
840;SDS011;406;48.566;13.450;2022-12-07T12:56:06;9.57;;;7.33;;
840;SDS011;406;48.566;13.450;2022-12-07T12:58:40;10.47;;;7.70;;
840;SDS011;406;48.566;13.450;2022-12-07T13:04:00;12.50;;;8.20;;
840;SDS011;406;48.566;13.450;2022-12-07T13:08:55;10.60;;;8.53;;
840;SDS011;406;48.566;13.450;2022-12-07T13:11:29;10.27;;;8.03;;
840;SDS011;406;48.566;13.450;2022-12-07T13:17:00;13.77;;;9.47;;
840;SDS011;406;48.566;13.450;2022-12-07T13:25:08;12.13;;;8.53;;
840;SDS011;406;48.566;13.450;2022-12-07T13:27:37;12.57;;;9.03;;
840;SDS011;406;48.566;13.450;2022-12-07T13:30:13;14.20;;;10.00;;
840;SDS011;406;48.566;13.450;2022-12-07T13:32:40;11.93;;;8.40;;
840;SDS011;406;48.566;13.450;2022-12-07T13:37:58;12.23;;;9.23;;
840;SDS011;406;48.566;13.450;2022-12-07T13:40:26;11.80;;;8.80;;
840;SDS011;406;48.566;13.450;2022-12-07T13:42:58;10.20;;;8.53;;
840;SDS011;406;48.566;13.450;2022-12-07T13:45:27;13.30;;;8.93;;
840;SDS011;406;48.566;13.450;2022-12-07T13:48:35;10.20;;;7.77;;
840;SDS011;406;48.566;13.450;2022-12-07T13:51:01;12.00;;;8.87;;
840;SDS011;406;48.566;13.450;2022-12-07T13:53:28;13.00;;;7.63;;
840;SDS011;406;48.566;13.450;2022-12-07T13:55:56;10.67;;;7.53;;
840;SDS011;406;48.566;13.450;2022-12-07T13:58:26;9.33;;;6.93;;
840;SDS011;406;48.566;13.450;2022-12-07T14:00:55;9.17;;;6.90;;
840;SDS011;406;48.566;13.450;2022-12-07T14:03:31;8.77;;;7.70;;
840;SDS011;406;48.566;13.450;2022-12-07T14:08:39;10.57;;;8.20;;
840;SDS011;406;48.566;13.450;2022-12-07T14:11:05;9.03;;;7.57;;
840;SDS011;406;48.566;13.450;2022-12-07T14:13:33;10.00;;;7.83;;
840;SDS011;406;48.566;13.450;2022-12-07T14:16:03;8.97;;;7.40;;
840;SDS011;406;48.566;13.450;2022-12-07T14:18:51;10.83;;;8.90;;
840;SDS011;406;48.566;13.450;2022-12-07T14:21:18;10.83;;;8.13;;
840;SDS011;406;48.566;13.450;2022-12-07T14:24:02;8.47;;;7.30;;
840;SDS011;406;48.566;13.450;2022-12-07T14:26:41;9.10;;;6.97;;
840;SDS011;406;48.566;13.450;2022-12-07T14:29:29;10.83;;;7.40;;
840;SDS011;406;48.566;13.450;2022-12-07T14:32:09;11.00;;;7.00;;
840;SDS011;406;48.566;13.450;2022-12-07T14:37:24;10.40;;;7.23;;
840;SDS011;406;48.566;13.450;2022-12-07T14:39:50;10.40;;;7.57;;
840;SDS011;406;48.566;13.450;2022-12-07T14:42:15;9.00;;;6.87;;
840;SDS011;406;48.566;13.450;2022-12-07T14:44:41;10.47;;;7.97;;
840;SDS011;406;48.566;13.450;2022-12-07T14:47:09;13.53;;;8.50;;
840;SDS011;406;48.566;13.450;2022-12-07T14:49:35;10.13;;;7.57;;
840;SDS011;406;48.566;13.450;2022-12-07T14:52:00;10.83;;;8.13;;
840;SDS011;406;48.566;13.450;2022-12-07T14:54:26;10.47;;;8.00;;
840;SDS011;406;48.566;13.450;2022-12-07T14:56:52;11.90;;;8.50;;
840;SDS011;406;48.566;13.450;2022-12-07T14:59:19;9.20;;;7.70;;
840;SDS011;406;48.566;13.450;2022-12-07T15:01:45;10.27;;;8.13;;
840;SDS011;406;48.566;13.450;2022-12-07T15:04:10;11.87;;;7.50;;
840;SDS011;406;48.566;13.450;2022-12-07T15:06:36;12.10;;;8.23;;
840;SDS011;406;48.566;13.450;2022-12-07T15:09:02;10.27;;;8.00;;
840;SDS011;406;48.566;13.450;2022-12-07T15:11:28;11.77;;;8.17;;
840;SDS011;406;48.566;13.450;2022-12-07T15:13:54;10.50;;;7.27;;
840;SDS011;406;48.566;13.450;2022-12-07T15:16:36;9.60;;;7.60;;
840;SDS011;406;48.566;13.450;2022-12-07T15:19:16;9.90;;;7.93;;
840;SDS011;406;48.566;13.450;2022-12-07T15:21:44;11.23;;;7.47;;
840;SDS011;406;48.566;13.450;2022-12-07T15:24:10;9.57;;;7.30;;
840;SDS011;406;48.566;13.450;2022-12-07T15:26:36;10.40;;;7.50;;
840;SDS011;406;48.566;13.450;2022-12-07T15:29:03;12.33;;;8.07;;
840;SDS011;406;48.566;13.450;2022-12-07T15:31:28;11.37;;;7.30;;
840;SDS011;406;48.566;13.450;2022-12-07T15:33:53;10.77;;;7.83;;
840;SDS011;406;48.566;13.450;2022-12-07T15:36:20;10.47;;;7.80;;
840;SDS011;406;48.566;13.450;2022-12-07T15:38:48;11.07;;;7.53;;
840;SDS011;406;48.566;13.450;2022-12-07T15:41:13;9.90;;;7.30;;
840;SDS011;406;48.566;13.450;2022-12-07T15:43:39;10.20;;;7.33;;
840;SDS011;406;48.566;13.450;2022-12-07T15:46:23;8.80;;;6.38;;
840;SDS011;406;48.566;13.450;2022-12-07T15:48:54;13.50;;;8.30;;
840;SDS011;406;48.566;13.450;2022-12-07T15:51:20;10.00;;;6.17;;
840;SDS011;406;48.566;13.450;2022-12-07T15:53:45;9.77;;;7.40;;
840;SDS011;406;48.566;13.450;2022-12-07T15:56:11;9.13;;;7.63;;
840;SDS011;406;48.566;13.450;2022-12-07T15:58:37;11.67;;;7.73;;
840;SDS011;406;48.566;13.450;2022-12-07T16:01:20;11.27;;;8.20;;
840;SDS011;406;48.566;13.450;2022-12-07T16:03:46;11.33;;;8.03;;
840;SDS011;406;48.566;13.450;2022-12-07T16:06:15;8.30;;;6.63;;
840;SDS011;406;48.566;13.450;2022-12-07T16:08:42;8.90;;;7.77;;
840;SDS011;406;48.566;13.450;2022-12-07T16:11:09;10.00;;;8.53;;
840;SDS011;406;48.566;13.450;2022-12-07T16:13:34;10.77;;;7.77;;
840;SDS011;406;48.566;13.450;2022-12-07T16:16:04;13.00;;;8.27;;
840;SDS011;406;48.566;13.450;2022-12-07T16:18:30;14.27;;;8.73;;
840;SDS011;406;48.566;13.450;2022-12-07T16:20:56;10.47;;;7.90;;
840;SDS011;406;48.566;13.450;2022-12-07T16:23:21;12.33;;;8.10;;
840;SDS011;406;48.566;13.450;2022-12-07T16:25:47;10.53;;;7.43;;
840;SDS011;406;48.566;13.450;2022-12-07T16:28:12;10.60;;;7.20;;
840;SDS011;406;48.566;13.450;2022-12-07T16:30:38;10.40;;;7.97;;
840;SDS011;406;48.566;13.450;2022-12-07T16:33:03;10.17;;;6.97;;
840;SDS011;406;48.566;13.450;2022-12-07T16:35:29;12.27;;;7.90;;
840;SDS011;406;48.566;13.450;2022-12-07T16:37:55;11.53;;;7.43;;
840;SDS011;406;48.566;13.450;2022-12-07T16:40:20;14.30;;;7.93;;
840;SDS011;406;48.566;13.450;2022-12-07T16:42:46;11.47;;;8.40;;
840;SDS011;406;48.566;13.450;2022-12-07T16:45:11;10.40;;;8.10;;
840;SDS011;406;48.566;13.450;2022-12-07T16:47:39;12.73;;;8.27;;
840;SDS011;406;48.566;13.450;2022-12-07T16:50:04;10.87;;;8.47;;
840;SDS011;406;48.566;13.450;2022-12-07T16:52:31;12.60;;;9.00;;
840;SDS011;406;48.566;13.450;2022-12-07T16:54:56;11.73;;;8.10;;
840;SDS011;406;48.566;13.450;2022-12-07T16:57:22;13.83;;;8.57;;
840;SDS011;406;48.566;13.450;2022-12-07T16:59:47;13.50;;;8.70;;
840;SDS011;406;48.566;13.450;2022-12-07T17:02:13;12.57;;;8.33;;
840;SDS011;406;48.566;13.450;2022-12-07T17:04:38;11.77;;;8.10;;
840;SDS011;406;48.566;13.450;2022-12-07T17:07:08;14.23;;;7.70;;
840;SDS011;406;48.566;13.450;2022-12-07T17:09:33;15.30;;;9.43;;
840;SDS011;406;48.566;13.450;2022-12-07T17:12:00;9.80;;;7.17;;
840;SDS011;406;48.566;13.450;2022-12-07T17:14:26;11.23;;;8.30;;
840;SDS011;406;48.566;13.450;2022-12-07T17:17:10;13.60;;;9.00;;
840;SDS011;406;48.566;13.450;2022-12-07T17:19:35;12.07;;;7.33;;
840;SDS011;406;48.566;13.450;2022-12-07T17:22:01;11.10;;;7.40;;
840;SDS011;406;48.566;13.450;2022-12-07T17:24:27;11.10;;;7.90;;
840;SDS011;406;48.566;13.450;2022-12-07T17:26:52;14.37;;;9.90;;
840;SDS011;406;48.566;13.450;2022-12-07T17:29:18;12.60;;;7.10;;
840;SDS011;406;48.566;13.450;2022-12-07T17:31:44;12.77;;;7.93;;
840;SDS011;406;48.566;13.450;2022-12-07T17:34:11;10.93;;;8.90;;
840;SDS011;406;48.566;13.450;2022-12-07T17:36:37;9.85;;;7.63;;
840;SDS011;406;48.566;13.450;2022-12-07T17:39:10;9.93;;;7.47;;